Terminal Aerodrome Forecast
Issued by NWS Denver/Boulder, CO

Home | Current Version | Previous Version | Text Only | Print | Product List | Glossary On
Versions: 1 2 3 4 5 6 7 8 9 10 11 12 13 14 15 16 17 18 19 20 21 22 23 24 25 26 27 28 29 30 31 32 33 34 35 36 37 38 39 40 41 42 43 44 45 46 47 48 49 50
000
FTUS45 KBOU 251131
TAFDEN
TAF
KDEN 251131Z 2512/2618 22010KT P6SM BKN150 BKN200
     FM251400 05011KT P6SM SCT150 BKN200
     FM251800 10009KT P6SM FEW080 SCT150 BKN200
     FM252000 15011KT P6SM VCSH SCT080 BKN140 PROB30 2521/2601
      VRB20G35KT -TSRA BKN080CB
     FM260100 23012KT P6SM FEW080 BKN110
     FM260500 20010KT P6SM FEW110 SCT200
     FM261600 05009KT P6SM FEW100 SCT180=

USA.gov is the U.S. government's official web portal to all federal, state and local government web resources and services.